sensor_id;sensor_type;location;lat;lon;timestamp;P1;durP1;ratioP1;P2;durP2;ratioP2
9310;SDS011;4694;52.464;13.480;2023-06-10T09:21:50;8.88;;;7.13;;
9310;SDS011;4694;52.464;13.480;2023-06-10T09:24:17;15.32;;;6.60;;
9310;SDS011;4694;52.464;13.480;2023-06-10T09:26:44;10.00;;;7.10;;
9310;SDS011;4694;52.464;13.480;2023-06-10T09:29:11;10.63;;;6.88;;
9310;SDS011;4694;52.464;13.480;2023-06-10T09:31:38;11.27;;;8.07;;
9310;SDS011;4694;52.464;13.480;2023-06-10T09:34:09;11.50;;;7.97;;
9310;SDS011;4694;52.464;13.480;2023-06-10T09:36:37;8.75;;;6.55;;
9310;SDS011;4694;52.464;13.480;2023-06-10T09:39:13;10.18;;;7.60;;
9310;SDS011;4694;52.464;13.480;2023-06-10T09:41:40;9.52;;;7.97;;
9310;SDS011;4694;52.464;13.480;2023-06-10T09:44:10;7.50;;;6.80;;
9310;SDS011;4694;52.464;13.480;2023-06-10T09:46:37;11.10;;;7.60;;
9310;SDS011;4694;52.464;13.480;2023-06-10T09:49:04;7.88;;;6.35;;
9310;SDS011;4694;52.464;13.480;2023-06-10T09:51:31;7.55;;;6.85;;
9310;SDS011;4694;52.464;13.480;2023-06-10T09:53:59;7.95;;;6.45;;
9310;SDS011;4694;52.464;13.480;2023-06-10T09:56:33;9.90;;;6.13;;
9310;SDS011;4694;52.464;13.480;2023-06-10T09:59:01;9.70;;;5.80;;
9310;SDS011;4694;52.464;13.480;2023-06-10T10:01:28;7.40;;;5.95;;
9310;SDS011;4694;52.464;13.480;2023-06-10T10:03:58;9.65;;;6.68;;
9310;SDS011;4694;52.464;13.480;2023-06-10T10:06:25;14.52;;;6.85;;
9310;SDS011;4694;52.464;13.480;2023-06-10T10:08:52;10.55;;;7.00;;
9310;SDS011;4694;52.464;13.480;2023-06-10T10:11:20;8.50;;;6.20;;
9310;SDS011;4694;52.464;13.480;2023-06-10T10:13:50;9.18;;;6.57;;
9310;SDS011;4694;52.464;13.480;2023-06-10T10:18:46;8.38;;;7.03;;
9310;SDS011;4694;52.464;13.480;2023-06-10T10:21:15;7.80;;;7.03;;
9310;SDS011;4694;52.464;13.480;2023-06-10T10:23:44;7.53;;;6.82;;
9310;SDS011;4694;52.464;13.480;2023-06-10T10:26:15;10.50;;;6.60;;
9310;SDS011;4694;52.464;13.480;2023-06-10T10:28:44;7.18;;;6.50;;
9310;SDS011;4694;52.464;13.480;2023-06-10T10:31:15;7.72;;;6.95;;
9310;SDS011;4694;52.464;13.480;2023-06-10T10:33:45;7.57;;;6.80;;
9310;SDS011;4694;52.464;13.480;2023-06-10T10:36:15;8.23;;;6.18;;
9310;SDS011;4694;52.464;13.480;2023-06-10T10:38:42;9.45;;;8.02;;
9310;SDS011;4694;52.464;13.480;2023-06-10T10:41:09;16.05;;;5.78;;
9310;SDS011;4694;52.464;13.480;2023-06-10T10:43:37;6.50;;;5.63;;
9310;SDS011;4694;52.464;13.480;2023-06-10T10:46:11;7.85;;;5.63;;
9310;SDS011;4694;52.464;13.480;2023-06-10T10:48:39;4.70;;;4.30;;
9310;SDS011;4694;52.464;13.480;2023-06-10T10:51:07;8.18;;;5.45;;
9310;SDS011;4694;52.464;13.480;2023-06-10T10:53:34;5.03;;;4.65;;
9310;SDS011;4694;52.464;13.480;2023-06-10T10:56:04;4.97;;;4.50;;
9310;SDS011;4694;52.464;13.480;2023-06-10T10:58:32;7.63;;;4.53;;
9310;SDS011;4694;52.464;13.480;2023-06-10T11:00:59;15.63;;;10.63;;
9310;SDS011;4694;52.464;13.480;2023-06-10T11:03:27;14.50;;;10.57;;
9310;SDS011;4694;52.464;13.480;2023-06-10T11:05:57;10.40;;;5.77;;
9310;SDS011;4694;52.464;13.480;2023-06-10T11:08:45;4.90;;;4.50;;
9310;SDS011;4694;52.464;13.480;2023-06-10T11:11:19;6.80;;;6.25;;
9310;SDS011;4694;52.464;13.480;2023-06-10T11:16:29;12.45;;;10.90;;
9310;SDS011;4694;52.464;13.480;2023-06-10T11:18:57;11.30;;;9.43;;
9310;SDS011;4694;52.464;13.480;2023-06-10T11:21:25;8.98;;;5.30;;
9310;SDS011;4694;52.464;13.480;2023-06-10T11:23:52;6.78;;;5.90;;
9310;SDS011;4694;52.464;13.480;2023-06-10T11:26:20;7.25;;;6.65;;
9310;SDS011;4694;52.464;13.480;2023-06-10T11:29:08;8.18;;;7.22;;
9310;SDS011;4694;52.464;13.480;2023-06-10T11:31:39;8.60;;;7.50;;
9310;SDS011;4694;52.464;13.480;2023-06-10T11:34:06;6.82;;;5.68;;
9310;SDS011;4694;52.464;13.480;2023-06-10T11:36:36;6.45;;;5.88;;
9310;SDS011;4694;52.464;13.480;2023-06-10T11:39:05;6.55;;;6.00;;
9310;SDS011;4694;52.464;13.480;2023-06-10T11:41:33;6.28;;;5.65;;
9310;SDS011;4694;52.464;13.480;2023-06-10T11:44:01;6.50;;;5.88;;
9310;SDS011;4694;52.464;13.480;2023-06-10T11:46:28;6.78;;;5.65;;
9310;SDS011;4694;52.464;13.480;2023-06-10T11:48:55;7.10;;;6.40;;
9310;SDS011;4694;52.464;13.480;2023-06-10T11:51:24;6.40;;;5.50;;
9310;SDS011;4694;52.464;13.480;2023-06-10T11:53:53;7.28;;;6.40;;
9310;SDS011;4694;52.464;13.480;2023-06-10T11:56:21;6.22;;;5.65;;
9310;SDS011;4694;52.464;13.480;2023-06-10T11:58:51;5.78;;;5.18;;
9310;SDS011;4694;52.464;13.480;2023-06-10T12:01:20;5.07;;;4.68;;
9310;SDS011;4694;52.464;13.480;2023-06-10T12:03:47;8.40;;;6.47;;
9310;SDS011;4694;52.464;13.480;2023-06-10T12:06:15;6.25;;;4.15;;
9310;SDS011;4694;52.464;13.480;2023-06-10T12:08:42;6.28;;;5.60;;
9310;SDS011;4694;52.464;13.480;2023-06-10T12:11:10;5.15;;;4.65;;
9310;SDS011;4694;52.464;13.480;2023-06-10T12:13:37;4.57;;;4.27;;
9310;SDS011;4694;52.464;13.480;2023-06-10T12:16:13;6.95;;;5.90;;
9310;SDS011;4694;52.464;13.480;2023-06-10T12:18:41;7.03;;;5.10;;
9310;SDS011;4694;52.464;13.480;2023-06-10T12:21:15;6.90;;;5.65;;
9310;SDS011;4694;52.464;13.480;2023-06-10T12:26:34;5.43;;;5.03;;
9310;SDS011;4694;52.464;13.480;2023-06-10T12:29:11;6.43;;;5.60;;
9310;SDS011;4694;52.464;13.480;2023-06-10T12:31:51;7.18;;;6.10;;
9310;SDS011;4694;52.464;13.480;2023-06-10T12:34:19;6.55;;;5.80;;
9310;SDS011;4694;52.464;13.480;2023-06-10T12:36:47;7.55;;;6.30;;
9310;SDS011;4694;52.464;13.480;2023-06-10T12:39:17;7.57;;;6.40;;
9310;SDS011;4694;52.464;13.480;2023-06-10T12:41:48;7.03;;;6.28;;
9310;SDS011;4694;52.464;13.480;2023-06-10T12:44:15;7.65;;;6.93;;
9310;SDS011;4694;52.464;13.480;2023-06-10T12:46:42;12.32;;;7.95;;
9310;SDS011;4694;52.464;13.480;2023-06-10T12:49:18;6.75;;;6.15;;
9310;SDS011;4694;52.464;13.480;2023-06-10T12:51:46;8.65;;;7.18;;
9310;SDS011;4694;52.464;13.480;2023-06-10T12:54:13;7.18;;;6.53;;
9310;SDS011;4694;52.464;13.480;2023-06-10T12:56:41;6.97;;;6.38;;
9310;SDS011;4694;52.464;13.480;2023-06-10T12:59:09;9.13;;;6.95;;
9310;SDS011;4694;52.464;13.480;2023-06-10T13:01:37;7.37;;;6.67;;
9310;SDS011;4694;52.464;13.480;2023-06-10T13:04:04;7.25;;;6.53;;
9310;SDS011;4694;52.464;13.480;2023-06-10T13:06:32;7.70;;;6.78;;
9310;SDS011;4694;52.464;13.480;2023-06-10T13:09:01;8.95;;;6.32;;
9310;SDS011;4694;52.464;13.480;2023-06-10T13:11:28;10.63;;;7.22;;
9310;SDS011;4694;52.464;13.480;2023-06-10T13:13:55;7.05;;;5.82;;
9310;SDS011;4694;52.464;13.480;2023-06-10T13:16:24;7.18;;;6.50;;
9310;SDS011;4694;52.464;13.480;2023-06-10T13:18:52;6.80;;;6.03;;
9310;SDS011;4694;52.464;13.480;2023-06-10T13:21:18;6.65;;;6.03;;
9310;SDS011;4694;52.464;13.480;2023-06-10T13:23:46;11.95;;;6.55;;
9310;SDS011;4694;52.464;13.480;2023-06-10T13:26:13;8.43;;;6.43;;
9310;SDS011;4694;52.464;13.480;2023-06-10T13:28:41;8.98;;;6.57;;
9310;SDS011;4694;52.464;13.480;2023-06-10T13:31:08;7.63;;;6.82;;
9310;SDS011;4694;52.464;13.480;2023-06-10T13:33:36;7.55;;;6.85;;
9310;SDS011;4694;52.464;13.480;2023-06-10T13:36:03;6.80;;;6.20;;
9310;SDS011;4694;52.464;13.480;2023-06-10T13:38:30;8.68;;;6.05;;
9310;SDS011;4694;52.464;13.480;2023-06-10T13:40:57;7.63;;;5.82;;
9310;SDS011;4694;52.464;13.480;2023-06-10T13:43:24;6.28;;;5.78;;
9310;SDS011;4694;52.464;13.480;2023-06-10T13:45:51;7.57;;;6.80;;
9310;SDS011;4694;52.464;13.480;2023-06-10T13:48:18;7.38;;;5.88;;
9310;SDS011;4694;52.464;13.480;2023-06-10T13:50:47;7.15;;;6.50;;
9310;SDS011;4694;52.464;13.480;2023-06-10T13:53:14;6.95;;;6.45;;
9310;SDS011;4694;52.464;13.480;2023-06-10T13:55:41;7.38;;;6.38;;
9310;SDS011;4694;52.464;13.480;2023-06-10T13:58:08;6.80;;;6.32;;
9310;SDS011;4694;52.464;13.480;2023-06-10T14:00:35;6.43;;;5.82;;
9310;SDS011;4694;52.464;13.480;2023-06-10T14:03:02;9.45;;;5.78;;
9310;SDS011;4694;52.464;13.480;2023-06-10T14:05:29;6.32;;;5.55;;
9310;SDS011;4694;52.464;13.480;2023-06-10T14:07:58;9.35;;;6.82;;
9310;SDS011;4694;52.464;13.480;2023-06-10T14:10:25;8.05;;;6.50;;
9310;SDS011;4694;52.464;13.480;2023-06-10T14:12:52;7.80;;;6.85;;
9310;SDS011;4694;52.464;13.480;2023-06-10T14:15:19;6.10;;;5.45;;
9310;SDS011;4694;52.464;13.480;2023-06-10T14:17:46;9.02;;;6.45;;
9310;SDS011;4694;52.464;13.480;2023-06-10T14:20:13;6.85;;;5.72;;
9310;SDS011;4694;52.464;13.480;2023-06-10T14:22:40;6.78;;;6.18;;
9310;SDS011;4694;52.464;13.480;2023-06-10T14:25:09;5.75;;;5.35;;
9310;SDS011;4694;52.464;13.480;2023-06-10T14:27:36;6.95;;;6.40;;
9310;SDS011;4694;52.464;13.480;2023-06-10T14:30:03;6.57;;;6.07;;
9310;SDS011;4694;52.464;13.480;2023-06-10T14:32:30;6.57;;;5.95;;
9310;SDS011;4694;52.464;13.480;2023-06-10T14:34:57;8.45;;;6.00;;
9310;SDS011;4694;52.464;13.480;2023-06-10T14:37:25;6.57;;;5.80;;
9310;SDS011;4694;52.464;13.480;2023-06-10T14:39:52;6.47;;;5.80;;
9310;SDS011;4694;52.464;13.480;2023-06-10T14:42:20;6.57;;;5.95;;
9310;SDS011;4694;52.464;13.480;2023-06-10T14:44:47;7.03;;;5.68;;
9310;SDS011;4694;52.464;13.480;2023-06-10T14:47:15;8.23;;;5.88;;
9310;SDS011;4694;52.464;13.480;2023-06-10T14:49:42;9.57;;;5.43;;
9310;SDS011;4694;52.464;13.480;2023-06-10T14:52:09;8.88;;;5.60;;
9310;SDS011;4694;52.464;13.480;2023-06-10T14:54:36;10.88;;;5.93;;
9310;SDS011;4694;52.464;13.480;2023-06-10T14:57:03;9.93;;;6.82;;
9310;SDS011;4694;52.464;13.480;2023-06-10T14:59:32;9.15;;;5.05;;
9310;SDS011;4694;52.464;13.480;2023-06-10T15:01:59;7.05;;;5.13;;
9310;SDS011;4694;52.464;13.480;2023-06-10T15:04:26;11.13;;;5.63;;
9310;SDS011;4694;52.464;13.480;2023-06-10T15:06:53;8.48;;;5.88;;
9310;SDS011;4694;52.464;13.480;2023-06-10T15:09:20;8.10;;;5.93;;
9310;SDS011;4694;52.464;13.480;2023-06-10T15:11:47;6.70;;;5.45;;
9310;SDS011;4694;52.464;13.480;2023-06-10T15:14:14;6.38;;;5.15;;
9310;SDS011;4694;52.464;13.480;2023-06-10T15:16:43;6.82;;;5.63;;
9310;SDS011;4694;52.464;13.480;2023-06-10T15:19:11;11.93;;;6.10;;
9310;SDS011;4694;52.464;13.480;2023-06-10T15:21:38;5.63;;;5.03;;
9310;SDS011;4694;52.464;13.480;2023-06-10T15:24:05;8.35;;;5.93;;
9310;SDS011;4694;52.464;13.480;2023-06-10T15:26:32;11.50;;;5.47;;
9310;SDS011;4694;52.464;13.480;2023-06-10T15:28:59;6.57;;;5.95;;
9310;SDS011;4694;52.464;13.480;2023-06-10T15:31:28;6.85;;;5.28;;
9310;SDS011;4694;52.464;13.480;2023-06-10T15:33:57;9.02;;;5.13;;
9310;SDS011;4694;52.464;13.480;2023-06-10T15:36:25;8.32;;;5.05;;
9310;SDS011;4694;52.464;13.480;2023-06-10T15:38:52;8.00;;;5.28;;
9310;SDS011;4694;52.464;13.480;2023-06-10T15:41:19;7.25;;;4.75;;
9310;SDS011;4694;52.464;13.480;2023-06-10T15:43:46;7.90;;;5.95;;
9310;SDS011;4694;52.464;13.480;2023-06-10T15:46:13;7.00;;;5.22;;
9310;SDS011;4694;52.464;13.480;2023-06-10T15:48:40;13.60;;;5.80;;
9310;SDS011;4694;52.464;13.480;2023-06-10T15:51:08;6.88;;;5.43;;
9310;SDS011;4694;52.464;13.480;2023-06-10T15:53:35;7.45;;;5.00;;
9310;SDS011;4694;52.464;13.480;2023-06-10T15:56:03;7.63;;;5.07;;
9310;SDS011;4694;52.464;13.480;2023-06-10T15:58:30;8.32;;;4.97;;
9310;SDS011;4694;52.464;13.480;2023-06-10T16:00:57;6.78;;;4.53;;
9310;SDS011;4694;52.464;13.480;2023-06-10T16:03:24;6.07;;;4.68;;
9310;SDS011;4694;52.464;13.480;2023-06-10T16:05:51;7.05;;;4.75;;
9310;SDS011;4694;52.464;13.480;2023-06-10T16:08:19;7.40;;;4.53;;
9310;SDS011;4694;52.464;13.480;2023-06-10T16:10:46;8.23;;;4.55;;
9310;SDS011;4694;52.464;13.480;2023-06-10T16:13:13;7.45;;;4.97;;
9310;SDS011;4694;52.464;13.480;2023-06-10T16:15:41;5.88;;;4.30;;
9310;SDS011;4694;52.464;13.480;2023-06-10T16:18:08;5.32;;;4.70;;
9310;SDS011;4694;52.464;13.480;2023-06-10T16:20:35;5.85;;;4.25;;
9310;SDS011;4694;52.464;13.480;2023-06-10T16:23:02;6.00;;;4.55;;
9310;SDS011;4694;52.464;13.480;2023-06-10T16:25:30;7.60;;;4.38;;
9310;SDS011;4694;52.464;13.480;2023-06-10T16:27:58;7.35;;;5.57;;
9310;SDS011;4694;52.464;13.480;2023-06-10T16:30:26;7.03;;;4.90;;
9310;SDS011;4694;52.464;13.480;2023-06-10T16:32:53;7.97;;;4.07;;
9310;SDS011;4694;52.464;13.480;2023-06-10T16:35:20;6.07;;;4.85;;
9310;SDS011;4694;52.464;13.480;2023-06-10T16:37:47;9.93;;;5.50;;
9310;SDS011;4694;52.464;13.480;2023-06-10T16:40:14;9.30;;;5.80;;
9310;SDS011;4694;52.464;13.480;2023-06-10T16:42:42;8.98;;;6.65;;
9310;SDS011;4694;52.464;13.480;2023-06-10T16:45:10;5.72;;;4.80;;
9310;SDS011;4694;52.464;13.480;2023-06-10T16:47:37;6.68;;;4.47;;
9310;SDS011;4694;52.464;13.480;2023-06-10T16:50:04;8.80;;;4.82;;
9310;SDS011;4694;52.464;13.480;2023-06-10T16:52:31;5.78;;;4.47;;
9310;SDS011;4694;52.464;13.480;2023-06-10T16:54:58;6.47;;;4.72;;
9310;SDS011;4694;52.464;13.480;2023-06-10T16:57:25;6.47;;;3.72;;
9310;SDS011;4694;52.464;13.480;2023-06-10T16:59:54;6.38;;;3.97;;
9310;SDS011;4694;52.464;13.480;2023-06-10T17:02:21;6.78;;;4.65;;
9310;SDS011;4694;52.464;13.480;2023-06-10T17:04:48;5.18;;;4.20;;
9310;SDS011;4694;52.464;13.480;2023-06-10T17:07:15;5.25;;;3.92;;
9310;SDS011;4694;52.464;13.480;2023-06-10T17:09:48;8.00;;;4.75;;
9310;SDS011;4694;52.464;13.480;2023-06-10T17:12:15;7.13;;;4.35;;
9310;SDS011;4694;52.464;13.480;2023-06-10T17:14:42;5.60;;;4.05;;
9310;SDS011;4694;52.464;13.480;2023-06-10T17:17:11;7.45;;;3.88;;
9310;SDS011;4694;52.464;13.480;2023-06-10T17:19:38;4.30;;;3.65;;
9310;SDS011;4694;52.464;13.480;2023-06-10T17:22:05;5.50;;;4.10;;
9310;SDS011;4694;52.464;13.480;2023-06-10T17:24:32;4.55;;;3.95;;
9310;SDS011;4694;52.464;13.480;2023-06-10T17:26:59;6.40;;;4.22;;
9310;SDS011;4694;52.464;13.480;2023-06-10T17:29:27;10.75;;;4.50;;
9310;SDS011;4694;52.464;13.480;2023-06-10T17:31:56;5.32;;;4.75;;
9310;SDS011;4694;52.464;13.480;2023-06-10T17:34:25;6.38;;;4.50;;
9310;SDS011;4694;52.464;13.480;2023-06-10T17:36:52;5.18;;;4.68;;
9310;SDS011;4694;52.464;13.480;2023-06-10T17:39:19;4.40;;;3.58;;
9310;SDS011;4694;52.464;13.480;2023-06-10T17:41:46;4.97;;;4.10;;
9310;SDS011;4694;52.464;13.480;2023-06-10T17:44:13;4.65;;;3.65;;
9310;SDS011;4694;52.464;13.480;2023-06-10T17:46:41;6.85;;;3.78;;
9310;SDS011;4694;52.464;13.480;2023-06-10T17:49:08;4.82;;;4.28;;
9310;SDS011;4694;52.464;13.480;2023-06-10T17:51:37;4.65;;;4.25;;
9310;SDS011;4694;52.464;13.480;2023-06-10T17:54:04;4.85;;;4.30;;
9310;SDS011;4694;52.464;13.480;2023-06-10T17:56:32;5.60;;;3.42;;
9310;SDS011;4694;52.464;13.480;2023-06-10T17:58:59;7.95;;;4.35;;
9310;SDS011;4694;52.464;13.480;2023-06-10T18:01:27;4.68;;;4.25;;
9310;SDS011;4694;52.464;13.480;2023-06-10T18:03:54;4.25;;;3.67;;
9310;SDS011;4694;52.464;13.480;2023-06-10T18:06:21;4.70;;;3.85;;
9310;SDS011;4694;52.464;13.480;2023-06-10T18:08:50;5.85;;;3.90;;
9310;SDS011;4694;52.464;13.480;2023-06-10T18:11:17;5.53;;;4.53;;
9310;SDS011;4694;52.464;13.480;2023-06-10T18:13:44;7.05;;;4.60;;
9310;SDS011;4694;52.464;13.480;2023-06-10T18:16:11;5.45;;;4.95;;
9310;SDS011;4694;52.464;13.480;2023-06-10T18:18:38;6.28;;;4.75;;
